McAlester, OK (74501)

11:24 AM CST on February 23, 2017 (GMT -0600)
South McAlester | | Change Station
Active Advisory: Fire Weather Warning

Elev 751 ft 34.92 °N, 95.75 °W | Updated 2 minutes ago

Partly Cloudy
Partly Cloudy
77.4 °F
Feels Like 79 °F
N
11.4
Wind Variable Wind from South

Today
High -- | Low -- °F
--% Chance of Precip.
Yesterday
High -- | Low -- °F
Precip. -- in
Pressure 29.57 in
Visibility 10.0 miles
Clouds Few 9500 ft
Scattered Clouds 11000 ft
Heat Index 79 °F
Dew Point 65 °F
Humidity 66%
Rainfall 0.00 in
Snow Depth Not available.
6:59 AM 6:13 PM
Waning Crescent, 9% visible
METAR KMLC 231653Z AUTO 17011G21KT 10SM FEW095 SCT110 24/10 A2959 RMK AO2 SLP011 T02390100
Pressure 29.57 in
Visibility 10.0 miles
Clouds Few 9500 ft
Scattered Clouds 11000 ft
Heat Index 79 °F
Dew Point 65 °F
Humidity 66%
Rainfall 0.00 in
Snow Depth Not available.
6:59 AM 6:13 PM
Waning Crescent, 9% visible
METAR KMLC 231653Z AUTO 17011G21KT 10SM FEW095 SCT110 24/10 A2959 RMK AO2 SLP011 T02390100

Get Your Daily Forecast Email!

Thanks for signing up!

Be on the lookout for a verification email in your inbox.

You'll start receiving the daily forecast at 8 AM.

×

10-Day Weather Forecast

Almanac

Astronomy

Feb. 23, 2017 Rise Set
Actual Time
Civil Twilight
Nautical Twilight
Astronomical Twilight
Moon
Length of Visible Light
Length of Day
Tomorrow will be .
, % of the Moon is Illuminated

Today's Extremes

State Highs State Lows

Community

WunderPhotos

Upload Photos

1,962,540 photos uploaded!

WunderBlog® & News

Nearby

Air Quality

  Air Quality AQ Index Pollutant
Not available.

Snow Depth

Station Depth Elevation

Earthquake Activity

City Distance Mag. Time & Date
Minimum magnitude displayed is 2.5.

Coastal Water Temperatures

Place Temperature

Stations

Nearby Weather Stations

Station Location Temp. Windchill Dew Point Humidity Wind Precip. Elev Updated Type
                   

Watches & Warnings

Fire Weather Warning
Issued: 3:45 AM CST Feb. 23, 2017 – National Weather Service

... Red flag warning in effect from 10 am this morning to 9 PM CST
this evening for windy conditions... warm temperatures and low
relative humidity for central portions of Oklahoma and parts of
western North Texas...

The National Weather Service in Norman has issued a red flag
warning, which is in effect from 10 am this morning to 9 PM CST
this evening. The Fire Weather Watch is no longer in effect.

* Timing... late Thursday morning through Thursday evening.

* Wind... south to southwest 10 to 20 mph, with gusts to 35 mph.

* Humidity... 15 to 30 percent.

* Temperature... mid 80s.

* Impacts... any fires that develop will likely spread rapidly.
Outdoor burning is not recommended.


Precautionary/preparedness actions...

A red flag warning means that critical fire weather conditions
are either occurring now, or will shortly. A combination of
strong winds, low relative humidity, and warm temperatures can
contribute to extreme fire behavior.